sensor_id;sensor_type;location;lat;lon;timestamp;temperature;humidity
41760;DHT22;27438;53.396;-6.670;2022-08-19T00:00:05;16.40;62.60
41760;DHT22;27438;53.396;-6.670;2022-08-19T00:02:32;16.40;62.70
41760;DHT22;27438;53.396;-6.670;2022-08-19T00:04:58;16.30;62.70
41760;DHT22;27438;53.396;-6.670;2022-08-19T00:07:24;16.30;62.80
41760;DHT22;27438;53.396;-6.670;2022-08-19T00:09:50;16.20;63.00
41760;DHT22;27438;53.396;-6.670;2022-08-19T00:12:15;16.10;63.10
41760;DHT22;27438;53.396;-6.670;2022-08-19T00:14:42;16.00;63.30
41760;DHT22;27438;53.396;-6.670;2022-08-19T00:17:08;16.00;63.40
41760;DHT22;27438;53.396;-6.670;2022-08-19T00:19:35;15.90;63.40
41760;DHT22;27438;53.396;-6.670;2022-08-19T00:22:01;15.90;63.60
41760;DHT22;27438;53.396;-6.670;2022-08-19T00:24:28;15.80;63.70
41760;DHT22;27438;53.396;-6.670;2022-08-19T00:26:55;15.80;63.90
41760;DHT22;27438;53.396;-6.670;2022-08-19T00:29:22;15.80;63.90
41760;DHT22;27438;53.396;-6.670;2022-08-19T00:31:49;15.70;64.00
41760;DHT22;27438;53.396;-6.670;2022-08-19T00:34:21;15.70;64.10
41760;DHT22;27438;53.396;-6.670;2022-08-19T00:36:47;15.70;64.20
41760;DHT22;27438;53.396;-6.670;2022-08-19T00:39:16;15.60;64.20
41760;DHT22;27438;53.396;-6.670;2022-08-19T00:41:43;15.60;64.40
41760;DHT22;27438;53.396;-6.670;2022-08-19T00:44:15;15.60;64.60
41760;DHT22;27438;53.396;-6.670;2022-08-19T00:46:44;15.60;64.80
41760;DHT22;27438;53.396;-6.670;2022-08-19T00:49:16;15.60;64.90
41760;DHT22;27438;53.396;-6.670;2022-08-19T00:51:44;15.60;65.20
41760;DHT22;27438;53.396;-6.670;2022-08-19T00:54:10;15.60;65.30
41760;DHT22;27438;53.396;-6.670;2022-08-19T00:56:37;15.60;65.50
41760;DHT22;27438;53.396;-6.670;2022-08-19T00:59:04;15.60;65.60
41760;DHT22;27438;53.396;-6.670;2022-08-19T01:01:38;15.60;65.60
41760;DHT22;27438;53.396;-6.670;2022-08-19T01:04:04;15.70;65.70
41760;DHT22;27438;53.396;-6.670;2022-08-19T01:06:30;15.70;65.70
41760;DHT22;27438;53.396;-6.670;2022-08-19T01:08:59;15.70;65.80
41760;DHT22;27438;53.396;-6.670;2022-08-19T01:11:28;15.70;65.90
41760;DHT22;27438;53.396;-6.670;2022-08-19T01:13:55;15.80;65.90
41760;DHT22;27438;53.396;-6.670;2022-08-19T01:16:23;15.80;66.40
41760;DHT22;27438;53.396;-6.670;2022-08-19T01:18:50;15.80;65.90
41760;DHT22;27438;53.396;-6.670;2022-08-19T01:21:34;15.80;65.90
41760;DHT22;27438;53.396;-6.670;2022-08-19T01:24:03;15.80;66.20
41760;DHT22;27438;53.396;-6.670;2022-08-19T01:26:29;15.80;66.20
41760;DHT22;27438;53.396;-6.670;2022-08-19T01:28:57;15.80;66.30
41760;DHT22;27438;53.396;-6.670;2022-08-19T01:31:26;15.80;66.30
41760;DHT22;27438;53.396;-6.670;2022-08-19T01:33:53;15.80;66.50
41760;DHT22;27438;53.396;-6.670;2022-08-19T01:36:49;15.80;66.60
41760;DHT22;27438;53.396;-6.670;2022-08-19T01:39:18;15.80;66.90
41760;DHT22;27438;53.396;-6.670;2022-08-19T01:41:45;15.80;66.90
41760;DHT22;27438;53.396;-6.670;2022-08-19T01:44:11;15.80;67.00
41760;DHT22;27438;53.396;-6.670;2022-08-19T01:46:37;15.90;67.10
41760;DHT22;27438;53.396;-6.670;2022-08-19T01:49:05;15.90;67.10
41760;DHT22;27438;53.396;-6.670;2022-08-19T01:51:31;15.90;67.00
41760;DHT22;27438;53.396;-6.670;2022-08-19T01:53:57;15.80;67.00
41760;DHT22;27438;53.396;-6.670;2022-08-19T01:56:23;15.90;67.00
41760;DHT22;27438;53.396;-6.670;2022-08-19T01:58:53;15.80;67.50
41760;DHT22;27438;53.396;-6.670;2022-08-19T02:01:19;15.80;67.00
41760;DHT22;27438;53.396;-6.670;2022-08-19T02:03:45;15.70;67.10
41760;DHT22;27438;53.396;-6.670;2022-08-19T02:06:12;15.70;67.30
41760;DHT22;27438;53.396;-6.670;2022-08-19T02:08:39;15.60;67.20
41760;DHT22;27438;53.396;-6.670;2022-08-19T02:11:06;15.60;67.30
41760;DHT22;27438;53.396;-6.670;2022-08-19T02:13:33;15.60;67.50
41760;DHT22;27438;53.396;-6.670;2022-08-19T02:15:59;15.60;67.60
41760;DHT22;27438;53.396;-6.670;2022-08-19T02:18:25;15.50;67.60
41760;DHT22;27438;53.396;-6.670;2022-08-19T02:20:52;15.50;67.70
41760;DHT22;27438;53.396;-6.670;2022-08-19T02:23:17;15.50;67.80
41760;DHT22;27438;53.396;-6.670;2022-08-19T02:25:45;15.50;68.00
41760;DHT22;27438;53.396;-6.670;2022-08-19T02:28:13;15.50;68.10
41760;DHT22;27438;53.396;-6.670;2022-08-19T02:30:40;15.50;68.30
41760;DHT22;27438;53.396;-6.670;2022-08-19T02:33:06;15.60;68.40
41760;DHT22;27438;53.396;-6.670;2022-08-19T02:35:32;15.60;68.40
41760;DHT22;27438;53.396;-6.670;2022-08-19T02:37:58;15.60;68.30
41760;DHT22;27438;53.396;-6.670;2022-08-19T02:40:49;15.60;68.20
41760;DHT22;27438;53.396;-6.670;2022-08-19T02:43:17;15.60;68.30
41760;DHT22;27438;53.396;-6.670;2022-08-19T02:45:43;15.60;68.30
41760;DHT22;27438;53.396;-6.670;2022-08-19T02:48:08;15.60;68.30
41760;DHT22;27438;53.396;-6.670;2022-08-19T02:50:38;15.60;68.30
41760;DHT22;27438;53.396;-6.670;2022-08-19T02:53:04;15.60;68.40
41760;DHT22;27438;53.396;-6.670;2022-08-19T02:55:30;15.60;68.50
41760;DHT22;27438;53.396;-6.670;2022-08-19T02:57:55;15.50;68.50
41760;DHT22;27438;53.396;-6.670;2022-08-19T03:00:22;15.50;68.60
41760;DHT22;27438;53.396;-6.670;2022-08-19T03:02:49;15.50;68.70
41760;DHT22;27438;53.396;-6.670;2022-08-19T03:05:15;15.50;68.70
41760;DHT22;27438;53.396;-6.670;2022-08-19T03:07:41;15.50;68.70
41760;DHT22;27438;53.396;-6.670;2022-08-19T03:10:07;15.50;68.70
41760;DHT22;27438;53.396;-6.670;2022-08-19T03:12:36;15.50;68.70
41760;DHT22;27438;53.396;-6.670;2022-08-19T03:15:04;15.40;68.90
41760;DHT22;27438;53.396;-6.670;2022-08-19T03:17:30;15.40;69.10
41760;DHT22;27438;53.396;-6.670;2022-08-19T03:19:56;15.40;69.30
41760;DHT22;27438;53.396;-6.670;2022-08-19T03:22:22;15.40;69.50
41760;DHT22;27438;53.396;-6.670;2022-08-19T03:24:48;15.40;69.70
41760;DHT22;27438;53.396;-6.670;2022-08-19T03:27:13;15.40;69.60
41760;DHT22;27438;53.396;-6.670;2022-08-19T03:29:39;15.50;69.70
41760;DHT22;27438;53.396;-6.670;2022-08-19T03:32:06;15.50;69.60
41760;DHT22;27438;53.396;-6.670;2022-08-19T03:34:33;15.50;69.60
41760;DHT22;27438;53.396;-6.670;2022-08-19T03:37:08;15.60;69.60
41760;DHT22;27438;53.396;-6.670;2022-08-19T03:39:37;15.60;69.60
41760;DHT22;27438;53.396;-6.670;2022-08-19T03:42:03;15.60;69.60
41760;DHT22;27438;53.396;-6.670;2022-08-19T03:44:30;15.60;69.70
41760;DHT22;27438;53.396;-6.670;2022-08-19T03:46:58;15.60;69.80
41760;DHT22;27438;53.396;-6.670;2022-08-19T03:49:27;15.60;69.70
41760;DHT22;27438;53.396;-6.670;2022-08-19T03:51:55;15.60;69.80
41760;DHT22;27438;53.396;-6.670;2022-08-19T03:54:24;15.60;69.80
41760;DHT22;27438;53.396;-6.670;2022-08-19T03:56:52;15.60;69.90
41760;DHT22;27438;53.396;-6.670;2022-08-19T03:59:22;15.60;70.00
41760;DHT22;27438;53.396;-6.670;2022-08-19T04:01:52;15.60;70.00
41760;DHT22;27438;53.396;-6.670;2022-08-19T04:04:18;15.60;70.00
41760;DHT22;27438;53.396;-6.670;2022-08-19T04:06:44;15.60;70.60
41760;DHT22;27438;53.396;-6.670;2022-08-19T04:09:12;15.60;70.20
41760;DHT22;27438;53.396;-6.670;2022-08-19T04:11:58;15.60;70.20
41760;DHT22;27438;53.396;-6.670;2022-08-19T04:14:28;15.60;70.30
41760;DHT22;27438;53.396;-6.670;2022-08-19T04:16:58;15.60;70.10
41760;DHT22;27438;53.396;-6.670;2022-08-19T04:19:26;15.50;70.10
41760;DHT22;27438;53.396;-6.670;2022-08-19T04:21:53;15.50;70.20
41760;DHT22;27438;53.396;-6.670;2022-08-19T04:24:20;15.50;70.20
41760;DHT22;27438;53.396;-6.670;2022-08-19T04:26:46;15.40;70.20
41760;DHT22;27438;53.396;-6.670;2022-08-19T04:29:19;15.30;70.30
41760;DHT22;27438;53.396;-6.670;2022-08-19T04:31:47;15.30;70.40
41760;DHT22;27438;53.396;-6.670;2022-08-19T04:34:16;15.20;70.50
41760;DHT22;27438;53.396;-6.670;2022-08-19T04:36:43;15.20;70.70
41760;DHT22;27438;53.396;-6.670;2022-08-19T04:39:13;15.10;70.80
41760;DHT22;27438;53.396;-6.670;2022-08-19T04:41:39;15.10;70.90
41760;DHT22;27438;53.396;-6.670;2022-08-19T04:44:23;15.20;70.90
41760;DHT22;27438;53.396;-6.670;2022-08-19T04:46:50;15.10;71.10
41760;DHT22;27438;53.396;-6.670;2022-08-19T04:49:18;15.10;71.20
41760;DHT22;27438;53.396;-6.670;2022-08-19T04:51:46;15.20;71.30
41760;DHT22;27438;53.396;-6.670;2022-08-19T04:54:14;15.20;71.30
41760;DHT22;27438;53.396;-6.670;2022-08-19T04:56:40;15.20;71.40
41760;DHT22;27438;53.396;-6.670;2022-08-19T04:59:06;15.30;71.30
41760;DHT22;27438;53.396;-6.670;2022-08-19T05:01:34;15.30;71.10
41760;DHT22;27438;53.396;-6.670;2022-08-19T05:04:03;15.30;71.10
41760;DHT22;27438;53.396;-6.670;2022-08-19T05:06:31;15.30;71.20
41760;DHT22;27438;53.396;-6.670;2022-08-19T05:08:59;15.30;71.30
41760;DHT22;27438;53.396;-6.670;2022-08-19T05:11:31;15.30;71.30
41760;DHT22;27438;53.396;-6.670;2022-08-19T05:13:57;15.30;71.70
41760;DHT22;27438;53.396;-6.670;2022-08-19T05:16:24;15.30;71.10
41760;DHT22;27438;53.396;-6.670;2022-08-19T05:18:51;15.30;71.20
41760;DHT22;27438;53.396;-6.670;2022-08-19T05:21:35;15.30;71.20
41760;DHT22;27438;53.396;-6.670;2022-08-19T05:24:22;15.20;71.20
41760;DHT22;27438;53.396;-6.670;2022-08-19T05:26:50;15.20;71.20
41760;DHT22;27438;53.396;-6.670;2022-08-19T05:29:19;15.30;71.30
41760;DHT22;27438;53.396;-6.670;2022-08-19T05:31:46;15.30;71.20
41760;DHT22;27438;53.396;-6.670;2022-08-19T05:34:12;15.30;71.10
41760;DHT22;27438;53.396;-6.670;2022-08-19T05:36:41;15.30;70.90
41760;DHT22;27438;53.396;-6.670;2022-08-19T05:39:11;15.30;70.90
41760;DHT22;27438;53.396;-6.670;2022-08-19T05:41:42;15.30;70.90
41760;DHT22;27438;53.396;-6.670;2022-08-19T05:44:08;15.30;71.00
41760;DHT22;27438;53.396;-6.670;2022-08-19T05:46:36;15.30;71.00
41760;DHT22;27438;53.396;-6.670;2022-08-19T05:49:07;15.30;70.90
41760;DHT22;27438;53.396;-6.670;2022-08-19T05:51:34;15.30;71.00
41760;DHT22;27438;53.396;-6.670;2022-08-19T05:54:05;15.40;71.20
41760;DHT22;27438;53.396;-6.670;2022-08-19T05:56:33;15.40;71.20
41760;DHT22;27438;53.396;-6.670;2022-08-19T05:59:02;15.40;71.20
41760;DHT22;27438;53.396;-6.670;2022-08-19T06:01:28;15.40;71.10
41760;DHT22;27438;53.396;-6.670;2022-08-19T06:03:54;15.50;70.90
41760;DHT22;27438;53.396;-6.670;2022-08-19T06:06:20;15.50;70.90
41760;DHT22;27438;53.396;-6.670;2022-08-19T06:08:46;15.40;70.80
41760;DHT22;27438;53.396;-6.670;2022-08-19T06:11:25;15.40;70.90
41760;DHT22;27438;53.396;-6.670;2022-08-19T06:13:59;15.40;71.20
41760;DHT22;27438;53.396;-6.670;2022-08-19T06:16:26;15.40;71.30
41760;DHT22;27438;53.396;-6.670;2022-08-19T06:18:53;15.40;71.30
41760;DHT22;27438;53.396;-6.670;2022-08-19T06:21:25;15.50;71.90
41760;DHT22;27438;53.396;-6.670;2022-08-19T06:23:53;15.50;71.20
41760;DHT22;27438;53.396;-6.670;2022-08-19T06:26:19;15.50;71.20
41760;DHT22;27438;53.396;-6.670;2022-08-19T06:28:46;15.60;71.10
41760;DHT22;27438;53.396;-6.670;2022-08-19T06:31:17;15.60;71.10
41760;DHT22;27438;53.396;-6.670;2022-08-19T06:33:44;15.60;71.70
41760;DHT22;27438;53.396;-6.670;2022-08-19T06:36:21;15.60;71.20
41760;DHT22;27438;53.396;-6.670;2022-08-19T06:38:52;15.70;71.40
41760;DHT22;27438;53.396;-6.670;2022-08-19T06:41:18;15.70;71.60
41760;DHT22;27438;53.396;-6.670;2022-08-19T06:43:44;15.70;72.60
41760;DHT22;27438;53.396;-6.670;2022-08-19T06:46:12;15.80;72.60
41760;DHT22;27438;53.396;-6.670;2022-08-19T06:48:38;16.00;72.60
41760;DHT22;27438;53.396;-6.670;2022-08-19T06:51:04;16.20;72.60
41760;DHT22;27438;53.396;-6.670;2022-08-19T06:53:32;16.30;72.20
41760;DHT22;27438;53.396;-6.670;2022-08-19T06:55:57;16.40;71.80
41760;DHT22;27438;53.396;-6.670;2022-08-19T06:58:30;16.40;71.50
41760;DHT22;27438;53.396;-6.670;2022-08-19T07:01:01;16.30;71.70
41760;DHT22;27438;53.396;-6.670;2022-08-19T07:03:32;16.30;71.90
41760;DHT22;27438;53.396;-6.670;2022-08-19T07:06:06;16.30;72.10
41760;DHT22;27438;53.396;-6.670;2022-08-19T07:08:33;16.30;72.10
41760;DHT22;27438;53.396;-6.670;2022-08-19T07:11:05;16.30;72.20
41760;DHT22;27438;53.396;-6.670;2022-08-19T07:13:32;16.30;72.30
41760;DHT22;27438;53.396;-6.670;2022-08-19T07:16:10;16.30;72.20
41760;DHT22;27438;53.396;-6.670;2022-08-19T07:18:37;16.30;72.50
41760;DHT22;27438;53.396;-6.670;2022-08-19T07:21:40;16.30;72.70
41760;DHT22;27438;53.396;-6.670;2022-08-19T07:23:59;16.40;72.60
41760;DHT22;27438;53.396;-6.670;2022-08-19T07:26:31;16.40;72.30
41760;DHT22;27438;53.396;-6.670;2022-08-19T07:28:58;16.40;72.00
41760;DHT22;27438;53.396;-6.670;2022-08-19T07:31:26;16.40;71.90
41760;DHT22;27438;53.396;-6.670;2022-08-19T07:33:53;16.40;71.90
41760;DHT22;27438;53.396;-6.670;2022-08-19T07:36:24;16.40;72.00
41760;DHT22;27438;53.396;-6.670;2022-08-19T07:38:51;16.30;72.20
41760;DHT22;27438;53.396;-6.670;2022-08-19T07:41:21;16.30;72.30
41760;DHT22;27438;53.396;-6.670;2022-08-19T07:43:48;16.30;72.50
41760;DHT22;27438;53.396;-6.670;2022-08-19T07:46:15;16.30;72.60
41760;DHT22;27438;53.396;-6.670;2022-08-19T07:48:43;16.40;72.80
41760;DHT22;27438;53.396;-6.670;2022-08-19T07:51:16;16.50;73.30
41760;DHT22;27438;53.396;-6.670;2022-08-19T07:53:42;16.60;73.40
41760;DHT22;27438;53.396;-6.670;2022-08-19T07:56:11;16.70;73.30
41760;DHT22;27438;53.396;-6.670;2022-08-19T07:58:41;16.90;73.30
41760;DHT22;27438;53.396;-6.670;2022-08-19T08:01:09;17.00;72.70
41760;DHT22;27438;53.396;-6.670;2022-08-19T08:03:36;17.20;72.10
41760;DHT22;27438;53.396;-6.670;2022-08-19T08:06:22;17.30;71.80
41760;DHT22;27438;53.396;-6.670;2022-08-19T08:09:07;17.40;71.30
41760;DHT22;27438;53.396;-6.670;2022-08-19T08:11:41;17.60;71.00
41760;DHT22;27438;53.396;-6.670;2022-08-19T08:14:08;17.60;70.50
41760;DHT22;27438;53.396;-6.670;2022-08-19T08:16:35;17.70;69.90
41760;DHT22;27438;53.396;-6.670;2022-08-19T08:19:04;17.80;70.00
41760;DHT22;27438;53.396;-6.670;2022-08-19T08:21:32;18.00;69.80
41760;DHT22;27438;53.396;-6.670;2022-08-19T08:23:58;18.10;69.50
41760;DHT22;27438;53.396;-6.670;2022-08-19T08:26:24;18.20;69.20
41760;DHT22;27438;53.396;-6.670;2022-08-19T08:28:51;18.30;68.60
41760;DHT22;27438;53.396;-6.670;2022-08-19T08:31:17;18.30;67.60
41760;DHT22;27438;53.396;-6.670;2022-08-19T08:33:44;18.30;67.70
41760;DHT22;27438;53.396;-6.670;2022-08-19T08:36:11;18.30;67.60
41760;DHT22;27438;53.396;-6.670;2022-08-19T08:38:41;18.30;67.40
41760;DHT22;27438;53.396;-6.670;2022-08-19T08:43:52;18.30;66.80
41760;DHT22;27438;53.396;-6.670;2022-08-19T08:46:37;18.30;66.90
41760;DHT22;27438;53.396;-6.670;2022-08-19T08:51:47;18.30;67.00
41760;DHT22;27438;53.396;-6.670;2022-08-19T08:54:16;18.30;67.60
41760;DHT22;27438;53.396;-6.670;2022-08-19T08:56:44;18.50;67.80
41760;DHT22;27438;53.396;-6.670;2022-08-19T08:59:19;18.80;66.80
41760;DHT22;27438;53.396;-6.670;2022-08-19T09:01:46;18.90;65.90
41760;DHT22;27438;53.396;-6.670;2022-08-19T09:04:12;19.00;64.80
41760;DHT22;27438;53.396;-6.670;2022-08-19T09:09:24;19.10;63.60
41760;DHT22;27438;53.396;-6.670;2022-08-19T09:12:34;19.00;63.50
41760;DHT22;27438;53.396;-6.670;2022-08-19T09:15:06;19.00;63.20
41760;DHT22;27438;53.396;-6.670;2022-08-19T09:17:33;19.10;63.30
41760;DHT22;27438;53.396;-6.670;2022-08-19T09:22:35;19.20;63.00
41760;DHT22;27438;53.396;-6.670;2022-08-19T09:25:02;19.20;62.90
41760;DHT22;27438;53.396;-6.670;2022-08-19T09:27:28;19.20;62.70
41760;DHT22;27438;53.396;-6.670;2022-08-19T09:29:54;19.20;62.70
41760;DHT22;27438;53.396;-6.670;2022-08-19T09:32:22;19.30;62.60
41760;DHT22;27438;53.396;-6.670;2022-08-19T09:34:48;19.30;62.90
41760;DHT22;27438;53.396;-6.670;2022-08-19T09:37:14;19.50;62.90
41760;DHT22;27438;53.396;-6.670;2022-08-19T09:39:40;19.70;63.10
41760;DHT22;27438;53.396;-6.670;2022-08-19T09:42:07;20.00;62.50
41760;DHT22;27438;53.396;-6.670;2022-08-19T09:44:38;20.10;61.70
41760;DHT22;27438;53.396;-6.670;2022-08-19T09:47:04;20.20;61.10
41760;DHT22;27438;53.396;-6.670;2022-08-19T09:49:30;20.30;60.80
41760;DHT22;27438;53.396;-6.670;2022-08-19T09:51:56;20.20;60.00
41760;DHT22;27438;53.396;-6.670;2022-08-19T09:54:23;20.10;60.40
41760;DHT22;27438;53.396;-6.670;2022-08-19T09:56:49;19.90;61.10
41760;DHT22;27438;53.396;-6.670;2022-08-19T09:59:15;19.70;61.50
41760;DHT22;27438;53.396;-6.670;2022-08-19T10:01:41;19.50;62.00
41760;DHT22;27438;53.396;-6.670;2022-08-19T10:04:07;19.30;62.40
41760;DHT22;27438;53.396;-6.670;2022-08-19T10:06:38;19.20;62.80
41760;DHT22;27438;53.396;-6.670;2022-08-19T10:09:06;19.20;63.10
41760;DHT22;27438;53.396;-6.670;2022-08-19T10:11:36;19.00;63.40
41760;DHT22;27438;53.396;-6.670;2022-08-19T10:14:03;18.90;63.80
41760;DHT22;27438;53.396;-6.670;2022-08-19T10:16:31;18.80;64.80
41760;DHT22;27438;53.396;-6.670;2022-08-19T10:18:58;18.80;65.50
41760;DHT22;27438;53.396;-6.670;2022-08-19T10:21:30;18.90;65.10
41760;DHT22;27438;53.396;-6.670;2022-08-19T10:24:01;19.10;65.20
41760;DHT22;27438;53.396;-6.670;2022-08-19T10:26:32;19.30;65.20
41760;DHT22;27438;53.396;-6.670;2022-08-19T10:28:58;19.50;65.30
41760;DHT22;27438;53.396;-6.670;2022-08-19T10:31:28;19.80;65.00
41760;DHT22;27438;53.396;-6.670;2022-08-19T10:33:54;20.00;64.40
41760;DHT22;27438;53.396;-6.670;2022-08-19T10:36:28;20.30;63.60
41760;DHT22;27438;53.396;-6.670;2022-08-19T10:38:55;20.60;63.00
41760;DHT22;27438;53.396;-6.670;2022-08-19T10:41:27;20.80;60.90
41760;DHT22;27438;53.396;-6.670;2022-08-19T10:43:55;21.00;59.90
41760;DHT22;27438;53.396;-6.670;2022-08-19T10:46:23;21.20;59.90
41760;DHT22;27438;53.396;-6.670;2022-08-19T10:48:50;21.40;57.40
41760;DHT22;27438;53.396;-6.670;2022-08-19T10:51:16;21.40;56.50
41760;DHT22;27438;53.396;-6.670;2022-08-19T10:54:09;21.40;57.70
41760;DHT22;27438;53.396;-6.670;2022-08-19T10:56:35;21.50;56.50
41760;DHT22;27438;53.396;-6.670;2022-08-19T10:59:22;21.40;56.10
41760;DHT22;27438;53.396;-6.670;2022-08-19T11:01:50;21.30;56.30
41760;DHT22;27438;53.396;-6.670;2022-08-19T11:04:18;21.20;56.40
41760;DHT22;27438;53.396;-6.670;2022-08-19T11:06:45;21.10;56.60
41760;DHT22;27438;53.396;-6.670;2022-08-19T11:09:14;20.90;57.80
41760;DHT22;27438;53.396;-6.670;2022-08-19T11:11:41;20.90;57.40
41760;DHT22;27438;53.396;-6.670;2022-08-19T11:14:13;20.90;57.30
41760;DHT22;27438;53.396;-6.670;2022-08-19T11:16:40;21.00;57.50
41760;DHT22;27438;53.396;-6.670;2022-08-19T11:19:08;21.10;57.10
41760;DHT22;27438;53.396;-6.670;2022-08-19T11:21:37;21.30;57.80
41760;DHT22;27438;53.396;-6.670;2022-08-19T11:24:06;21.60;56.60
41760;DHT22;27438;53.396;-6.670;2022-08-19T11:26:34;21.90;55.60
41760;DHT22;27438;53.396;-6.670;2022-08-19T11:29:00;21.90;54.90
41760;DHT22;27438;53.396;-6.670;2022-08-19T11:31:29;21.90;54.90
41760;DHT22;27438;53.396;-6.670;2022-08-19T11:34:00;22.00;55.00
41760;DHT22;27438;53.396;-6.670;2022-08-19T11:36:27;22.20;57.10
41760;DHT22;27438;53.396;-6.670;2022-08-19T11:38:54;23.10;56.80
41760;DHT22;27438;53.396;-6.670;2022-08-19T11:41:21;24.30;53.90
41760;DHT22;27438;53.396;-6.670;2022-08-19T11:43:49;25.60;52.20
41760;DHT22;27438;53.396;-6.670;2022-08-19T11:46:16;27.20;47.10
41760;DHT22;27438;53.396;-6.670;2022-08-19T11:48:42;27.90;44.40
41760;DHT22;27438;53.396;-6.670;2022-08-19T11:51:13;28.80;44.00
41760;DHT22;27438;53.396;-6.670;2022-08-19T11:53:40;29.70;40.80
41760;DHT22;27438;53.396;-6.670;2022-08-19T11:56:07;29.50;38.80
41760;DHT22;27438;53.396;-6.670;2022-08-19T11:58:33;28.60;39.10
41760;DHT22;27438;53.396;-6.670;2022-08-19T12:01:00;27.80;39.90
41760;DHT22;27438;53.396;-6.670;2022-08-19T12:03:26;26.90;40.10
41760;DHT22;27438;53.396;-6.670;2022-08-19T12:05:51;26.10;41.00
41760;DHT22;27438;53.396;-6.670;2022-08-19T12:08:18;25.30;42.10
41760;DHT22;27438;53.396;-6.670;2022-08-19T12:10:44;24.60;42.90
41760;DHT22;27438;53.396;-6.670;2022-08-19T12:13:11;23.90;44.00
41760;DHT22;27438;53.396;-6.670;2022-08-19T12:15:41;23.30;45.10
41760;DHT22;27438;53.396;-6.670;2022-08-19T12:18:08;22.80;46.40
41760;DHT22;27438;53.396;-6.670;2022-08-19T12:20:35;22.40;47.80
41760;DHT22;27438;53.396;-6.670;2022-08-19T12:23:01;22.20;49.00
41760;DHT22;27438;53.396;-6.670;2022-08-19T12:25:27;22.30;49.50
41760;DHT22;27438;53.396;-6.670;2022-08-19T12:27:53;22.50;49.30
41760;DHT22;27438;53.396;-6.670;2022-08-19T12:30:18;22.60;49.20
41760;DHT22;27438;53.396;-6.670;2022-08-19T12:32:44;22.60;48.70
41760;DHT22;27438;53.396;-6.670;2022-08-19T12:35:10;22.50;48.60
41760;DHT22;27438;53.396;-6.670;2022-08-19T12:37:37;22.30;48.90
41760;DHT22;27438;53.396;-6.670;2022-08-19T12:40:04;22.10;49.30
41760;DHT22;27438;53.396;-6.670;2022-08-19T12:42:29;21.90;49.80
41760;DHT22;27438;53.396;-6.670;2022-08-19T12:44:56;21.70;50.70
41760;DHT22;27438;53.396;-6.670;2022-08-19T12:47:21;21.60;51.90
41760;DHT22;27438;53.396;-6.670;2022-08-19T12:49:48;21.80;52.60
41760;DHT22;27438;53.396;-6.670;2022-08-19T12:52:15;22.30;54.20
41760;DHT22;27438;53.396;-6.670;2022-08-19T12:54:42;23.60;52.80
41760;DHT22;27438;53.396;-6.670;2022-08-19T12:57:09;25.00;49.50
41760;DHT22;27438;53.396;-6.670;2022-08-19T12:59:36;26.70;47.40
41760;DHT22;27438;53.396;-6.670;2022-08-19T13:02:06;28.70;45.40
41760;DHT22;27438;53.396;-6.670;2022-08-19T13:04:33;30.60;40.80
41760;DHT22;27438;53.396;-6.670;2022-08-19T13:07:06;31.60;37.60
41760;DHT22;27438;53.396;-6.670;2022-08-19T13:09:34;31.00;35.10
41760;DHT22;27438;53.396;-6.670;2022-08-19T13:12:00;29.90;36.50
41760;DHT22;27438;53.396;-6.670;2022-08-19T13:14:28;28.90;37.30
41760;DHT22;27438;53.396;-6.670;2022-08-19T13:16:56;28.00;38.50
41760;DHT22;27438;53.396;-6.670;2022-08-19T13:19:22;27.20;40.00
41760;DHT22;27438;53.396;-6.670;2022-08-19T13:21:50;26.80;41.30
41760;DHT22;27438;53.396;-6.670;2022-08-19T13:24:16;27.40;43.40
41760;DHT22;27438;53.396;-6.670;2022-08-19T13:26:42;28.50;40.30
41760;DHT22;27438;53.396;-6.670;2022-08-19T13:29:08;28.50;38.50
41760;DHT22;27438;53.396;-6.670;2022-08-19T13:31:52;28.00;38.20
41760;DHT22;27438;53.396;-6.670;2022-08-19T13:34:36;27.50;39.20
41760;DHT22;27438;53.396;-6.670;2022-08-19T13:37:03;26.80;38.80
41760;DHT22;27438;53.396;-6.670;2022-08-19T13:39:30;26.60;41.80
41760;DHT22;27438;53.396;-6.670;2022-08-19T13:41:57;27.90;41.50
41760;DHT22;27438;53.396;-6.670;2022-08-19T13:44:23;29.40;39.50
41760;DHT22;27438;53.396;-6.670;2022-08-19T13:46:49;30.70;36.60
41760;DHT22;27438;53.396;-6.670;2022-08-19T13:49:18;31.00;34.60
41760;DHT22;27438;53.396;-6.670;2022-08-19T13:51:45;30.60;33.90
41760;DHT22;27438;53.396;-6.670;2022-08-19T13:54:12;30.30;34.90
41760;DHT22;27438;53.396;-6.670;2022-08-19T13:56:45;30.10;34.50
41760;DHT22;27438;53.396;-6.670;2022-08-19T13:59:11;29.40;34.30
41760;DHT22;27438;53.396;-6.670;2022-08-19T14:01:38;28.50;35.70
41760;DHT22;27438;53.396;-6.670;2022-08-19T14:04:04;27.50;38.90
41760;DHT22;27438;53.396;-6.670;2022-08-19T14:06:31;26.50;42.30
41760;DHT22;27438;53.396;-6.670;2022-08-19T14:08:57;25.40;45.30
41760;DHT22;27438;53.396;-6.670;2022-08-19T14:11:23;24.30;48.40
41760;DHT22;27438;53.396;-6.670;2022-08-19T14:13:49;23.50;50.70
41760;DHT22;27438;53.396;-6.670;2022-08-19T14:16:16;23.40;55.60
41760;DHT22;27438;53.396;-6.670;2022-08-19T14:18:42;24.20;54.40
41760;DHT22;27438;53.396;-6.670;2022-08-19T14:21:17;25.00;50.60
41760;DHT22;27438;53.396;-6.670;2022-08-19T14:23:47;25.00;48.70
41760;DHT22;27438;53.396;-6.670;2022-08-19T14:26:16;24.60;48.90
41760;DHT22;27438;53.396;-6.670;2022-08-19T14:28:43;24.10;49.90
41760;DHT22;27438;53.396;-6.670;2022-08-19T14:31:14;23.70;51.20
41760;DHT22;27438;53.396;-6.670;2022-08-19T14:33:44;23.70;53.80
41760;DHT22;27438;53.396;-6.670;2022-08-19T14:36:10;24.00;52.40
41760;DHT22;27438;53.396;-6.670;2022-08-19T14:38:36;24.10;51.90
41760;DHT22;27438;53.396;-6.670;2022-08-19T14:43:36;25.10;51.90
41760;DHT22;27438;53.396;-6.670;2022-08-19T14:46:02;26.00;50.60
41760;DHT22;27438;53.396;-6.670;2022-08-19T14:48:28;26.90;48.10
41760;DHT22;27438;53.396;-6.670;2022-08-19T14:50:53;27.40;45.50
41760;DHT22;27438;53.396;-6.670;2022-08-19T14:53:19;27.80;45.10
41760;DHT22;27438;53.396;-6.670;2022-08-19T14:55:46;28.10;43.10
41760;DHT22;27438;53.396;-6.670;2022-08-19T14:58:12;28.40;43.70
41760;DHT22;27438;53.396;-6.670;2022-08-19T15:00:38;28.60;42.50
41760;DHT22;27438;53.396;-6.670;2022-08-19T15:03:04;28.70;42.20
41760;DHT22;27438;53.396;-6.670;2022-08-19T15:05:30;28.60;40.90
41760;DHT22;27438;53.396;-6.670;2022-08-19T15:07:57;28.20;41.60
41760;DHT22;27438;53.396;-6.670;2022-08-19T15:10:25;28.10;42.80
41760;DHT22;27438;53.396;-6.670;2022-08-19T15:12:54;28.40;43.30
41760;DHT22;27438;53.396;-6.670;2022-08-19T15:15:20;28.70;42.10
41760;DHT22;27438;53.396;-6.670;2022-08-19T15:17:47;28.80;41.80
41760;DHT22;27438;53.396;-6.670;2022-08-19T15:20:19;29.00;41.30
41760;DHT22;27438;53.396;-6.670;2022-08-19T15:22:45;29.10;40.00
41760;DHT22;27438;53.396;-6.670;2022-08-19T15:25:15;29.00;40.00
41760;DHT22;27438;53.396;-6.670;2022-08-19T15:27:41;29.00;40.10
41760;DHT22;27438;53.396;-6.670;2022-08-19T15:30:09;28.80;39.20
41760;DHT22;27438;53.396;-6.670;2022-08-19T15:32:36;28.60;39.80
41760;DHT22;27438;53.396;-6.670;2022-08-19T15:35:03;28.30;39.80